createdAt,value
2022-12-29T05:02:59.620Z,11.44
2022-12-29T05:07:02.930Z,11.47
2022-12-29T05:11:06.257Z,11.40
2022-12-29T05:15:11.311Z,11.44
2022-12-29T05:19:15.823Z,11.42
2022-12-29T05:23:19.113Z,11.40
2022-12-29T05:27:27.506Z,11.42
2022-12-29T05:31:45.478Z,11.33
2022-12-29T05:35:49.657Z,11.27
2022-12-29T05:39:53.358Z,11.40
2022-12-29T05:43:55.969Z,11.43
2022-12-29T05:48:20.327Z,11.48
2022-12-29T05:52:40.920Z,11.55
2022-12-29T05:56:43.579Z,11.71
2022-12-29T06:00:46.952Z,11.71
2022-12-29T06:04:50.195Z,11.64
2022-12-29T06:08:54.741Z,11.57
2022-12-29T06:12:58.074Z,11.51
2022-12-29T06:17:02.368Z,11.28
2022-12-29T06:21:07.049Z,11.25
2022-12-29T06:25:11.406Z,11.36
2022-12-29T06:29:17.999Z,11.44
2022-12-29T06:33:22.097Z,11.46
2022-12-29T06:37:25.044Z,11.67
2022-12-29T06:41:32.399Z,11.68
2022-12-29T06:45:59.075Z,11.67
2022-12-29T06:50:01.982Z,11.77
2022-12-29T06:54:04.685Z,11.75
2022-12-29T06:58:08.563Z,11.60
2022-12-29T07:02:12.527Z,11.71
2022-12-29T07:06:15.349Z,11.65
2022-12-29T07:10:17.940Z,11.73
2022-12-29T07:14:22.092Z,11.71
2022-12-29T07:18:24.955Z,11.75
2022-12-29T07:22:27.695Z,11.85
2022-12-29T07:26:35.969Z,11.81
2022-12-29T07:30:40.447Z,11.83
2022-12-29T07:34:42.988Z,11.79
2022-12-29T07:38:45.754Z,11.93
2022-12-29T07:42:48.267Z,11.84
2022-12-29T07:46:57.413Z,11.86
2022-12-29T07:51:00.464Z,11.85
2022-12-29T07:55:02.994Z,11.81
2022-12-29T07:59:05.584Z,11.82
2022-12-29T08:03:09.448Z,11.72
2022-12-29T08:07:12.087Z,11.79
2022-12-29T08:11:14.612Z,11.84
2022-12-29T08:15:17.332Z,11.84
2022-12-29T08:19:21.362Z,11.77
2022-12-29T08:23:24.015Z,11.75
2022-12-29T08:27:28.379Z,11.71
2022-12-29T08:31:31.035Z,11.80
2022-12-29T08:35:34.956Z,11.88
2022-12-29T08:39:37.658Z,11.81
2022-12-29T08:43:40.223Z,11.75
2022-12-29T08:47:42.753Z,11.84
2022-12-29T08:51:46.654Z,11.74
2022-12-29T08:56:02.168Z,11.81
2022-12-29T09:00:11.957Z,11.59
2022-12-29T09:04:16.720Z,11.42
2022-12-29T09:08:26.352Z,11.28
2022-12-29T09:12:34.505Z,11.16
2022-12-29T09:16:39.193Z,11.11
2022-12-29T09:20:41.986Z,11.20
2022-12-29T09:24:45.808Z,11.20
2022-12-29T09:28:48.328Z,11.31
2022-12-29T09:32:55.109Z,11.47
2022-12-29T09:36:58.392Z,11.40
2022-12-29T09:41:12.971Z,11.35
2022-12-29T09:45:20.346Z,11.37
2022-12-29T09:49:29.965Z,11.22
2022-12-29T09:53:38.714Z,11.30
2022-12-29T09:57:47.744Z,11.35
2022-12-29T10:01:56.796Z,11.47
2022-12-29T10:06:08.845Z,11.43
2022-12-29T10:10:29.312Z,11.34
2022-12-29T10:14:52.696Z,11.15
2022-12-29T10:19:25.917Z,10.96
2022-12-29T10:23:37.746Z,11.18
2022-12-29T10:27:40.774Z,11.33
2022-12-29T10:31:47.156Z,11.50
2022-12-29T10:35:49.892Z,11.89
2022-12-29T10:39:55.409Z,12.22
2022-12-29T10:43:59.641Z,12.45
2022-12-29T10:48:08.664Z,12.45
2022-12-29T10:52:13.733Z,12.16
2022-12-29T10:56:23.873Z,12.23
2022-12-29T11:00:26.481Z,12.48
2022-12-29T11:04:41.313Z,12.60
2022-12-29T11:08:52.917Z,12.49
2022-12-29T11:13:02.774Z,12.40
2022-12-29T11:17:06.212Z,12.14
2022-12-29T11:21:27.135Z,12.14
2022-12-29T11:25:29.965Z,12.19
2022-12-29T11:29:39.515Z,12.37
2022-12-29T11:33:42.105Z,12.42
2022-12-29T11:37:46.038Z,12.54
2022-12-29T11:41:54.436Z,12.65
2022-12-29T11:45:57.721Z,12.86
2022-12-29T11:50:03.693Z,12.83
2022-12-29T11:54:08.168Z,12.62
2022-12-29T11:58:18.057Z,12.67
2022-12-29T12:02:42.806Z,12.56
2022-12-29T12:06:51.084Z,12.59
2022-12-29T12:10:59.467Z,12.53
2022-12-29T12:15:04.582Z,12.42
2022-12-29T12:19:35.611Z,12.41
2022-12-29T12:23:56.376Z,12.21
2022-12-29T12:28:07.530Z,12.18
2022-12-29T12:32:15.956Z,12.21
2022-12-29T12:36:33.375Z,12.33
2022-12-29T12:41:02.890Z,12.23
2022-12-29T12:45:29.741Z,12.07
2022-12-29T12:50:00.810Z,12.14
2022-12-29T12:54:18.321Z,12.06
2022-12-29T12:58:34.624Z,11.94
2022-12-29T13:02:47.297Z,12.00
2022-12-29T13:07:00.156Z,11.95
2022-12-29T13:11:13.051Z,11.86
2022-12-29T13:15:26.619Z,11.98
2022-12-29T13:19:33.193Z,11.93
2022-12-29T13:23:43.107Z,11.96
2022-12-29T13:27:53.756Z,11.86
2022-12-29T13:32:15.363Z,11.81
2022-12-29T13:36:25.941Z,11.93
2022-12-29T13:40:35.030Z,11.82
2022-12-29T13:44:41.492Z,11.87
2022-12-29T13:48:51.439Z,11.81
2022-12-29T13:53:04.724Z,11.83
2022-12-29T13:57:12.120Z,11.76
2022-12-29T14:01:20.526Z,11.78
2022-12-29T14:05:31.943Z,11.76
2022-12-29T14:09:47.489Z,11.66
2022-12-29T14:13:50.483Z,11.72
2022-12-29T14:18:06.527Z,11.69
2022-12-29T14:22:10.932Z,11.68
2022-12-29T14:26:35.311Z,11.76
2022-12-29T14:31:03.269Z,11.71
2022-12-29T14:35:40.348Z,11.56
2022-12-29T14:39:44.350Z,11.51
2022-12-29T14:44:01.689Z,11.59
2022-12-29T14:48:23.856Z,11.48
2022-12-29T14:52:32.034Z,11.45
2022-12-29T14:56:41.916Z,11.38
2022-12-29T15:00:47.428Z,11.23
2022-12-29T15:04:50.810Z,11.26
2022-12-29T15:09:01.883Z,11.27
2022-12-29T15:13:07.800Z,11.23
2022-12-29T15:17:29.175Z,11.26
2022-12-29T15:21:34.260Z,11.27
2022-12-29T15:25:37.995Z,11.23
2022-12-29T15:29:42.432Z,11.11
2022-12-29T15:33:48.873Z,11.09
2022-12-29T15:37:51.845Z,11.13
2022-12-29T15:42:01.351Z,11.14
2022-12-29T15:46:04.492Z,10.88
2022-12-29T15:50:17.805Z,10.72
2022-12-29T15:54:24.022Z,10.71
2022-12-29T15:58:29.093Z,10.64
2022-12-29T16:02:32.371Z,10.61
2022-12-29T16:06:38.860Z,10.59
2022-12-29T16:10:44.614Z,10.54
2022-12-29T16:14:50.650Z,10.47
2022-12-29T16:18:57.955Z,10.55
2022-12-29T16:23:02.419Z,10.53
2022-12-29T16:27:24.113Z,10.51
2022-12-29T16:31:35.760Z,10.41
2022-12-29T16:35:46.868Z,10.41
2022-12-29T16:39:50.950Z,10.25
2022-12-29T16:44:13.362Z,10.32
2022-12-29T16:48:21.494Z,10.23
2022-12-29T16:52:29.318Z,10.08
2022-12-29T16:56:37.227Z,10.16
2022-12-29T17:00:40.037Z,10.08
2022-12-29T17:04:43.068Z,10.07
2022-12-29T17:08:47.291Z,10.07
2022-12-29T17:12:51.353Z,10.08
2022-12-29T17:16:55.437Z,9.98
2022-12-29T17:20:58.123Z,9.96
2022-12-29T17:25:02.985Z,10.01
2022-12-29T17:29:07.177Z,9.83
2022-12-29T17:33:15.786Z,9.90
2022-12-29T17:37:35.972Z,10.06
2022-12-29T17:41:39.409Z,10.10
2022-12-29T17:45:45.596Z,10.12
2022-12-29T17:49:48.774Z,10.07
2022-12-29T17:53:52.928Z,10.07
2022-12-29T17:57:55.790Z,10.04
2022-12-29T18:02:00.095Z,10.02
2022-12-29T18:06:04.539Z,9.87
2022-12-29T18:10:07.877Z,9.96
2022-12-29T18:14:13.416Z,9.82
2022-12-29T18:18:19.269Z,9.89
2022-12-29T18:22:23.924Z,9.93
2022-12-29T18:26:29.194Z,9.87
2022-12-29T18:30:32.140Z,9.83
2022-12-29T18:34:35.970Z,9.80
2022-12-29T18:38:38.865Z,9.83
2022-12-29T18:42:41.553Z,9.89
2022-12-29T18:46:44.124Z,9.99
2022-12-29T18:50:51.770Z,10.08
2022-12-29T18:54:55.049Z,10.04
2022-12-29T18:58:57.724Z,10.02
2022-12-29T19:03:00.953Z,9.97
2022-12-29T19:07:04.819Z,10.05
2022-12-29T19:11:07.532Z,9.90
2022-12-29T19:15:19.043Z,9.96
2022-12-29T19:19:21.626Z,10.00
2022-12-29T19:23:27.381Z,9.89
2022-12-29T19:27:31.667Z,9.94
2022-12-29T19:31:34.371Z,9.89
2022-12-29T19:35:37.075Z,9.78
2022-12-29T19:39:41.036Z,9.56
2022-12-29T19:43:44.052Z,9.44
2022-12-29T19:47:46.683Z,9.82
2022-12-29T19:51:49.264Z,9.79
2022-12-29T19:55:53.070Z,9.85
2022-12-29T19:59:55.789Z,9.75
2022-12-29T20:03:58.617Z,9.56
2022-12-29T20:08:01.189Z,9.38
2022-12-29T20:12:05.514Z,9.31
2022-12-29T20:16:11.193Z,9.20
2022-12-29T20:20:14.043Z,9.09
2022-12-29T20:24:17.161Z,8.93
2022-12-29T20:28:21.438Z,8.87
2022-12-29T20:32:25.165Z,9.01
2022-12-29T20:36:29.929Z,9.12
2022-12-29T20:40:32.571Z,9.05
2022-12-29T20:44:37.693Z,9.09
2022-12-29T20:48:40.202Z,9.03
2022-12-29T20:52:44.343Z,9.14
2022-12-29T20:56:47.542Z,9.22
2022-12-29T21:00:51.537Z,9.26
2022-12-29T21:05:24.941Z,9.25
2022-12-29T21:09:16.687Z,9.42
2022-12-29T21:13:19.394Z,9.47
2022-12-29T21:17:23.343Z,9.47
2022-12-29T21:21:27.008Z,9.54
2022-12-29T21:25:37.168Z,9.51
2022-12-29T21:29:39.945Z,9.58
2022-12-29T21:33:43.861Z,9.77
2022-12-29T21:37:46.433Z,9.82
2022-12-29T21:41:48.981Z,9.76
2022-12-29T21:45:51.729Z,9.61
2022-12-29T21:49:55.619Z,9.79
2022-12-29T21:54:20.338Z,9.89
2022-12-29T21:58:40.572Z,9.90
